sensor_id;sensor_type;location;lat;lon;timestamp;temperature;humidity
37874;DHT22;23709;48.078;11.684;2023-04-03T00:02:30;3.10;99.90
37874;DHT22;23709;48.078;11.684;2023-04-03T00:05:02;3.10;99.90
37874;DHT22;23709;48.078;11.684;2023-04-03T00:07:35;3.10;99.90
37874;DHT22;23709;48.078;11.684;2023-04-03T00:10:08;3.10;99.90
37874;DHT22;23709;48.078;11.684;2023-04-03T00:12:40;3.10;99.90
37874;DHT22;23709;48.078;11.684;2023-04-03T00:15:12;3.10;99.90
37874;DHT22;23709;48.078;11.684;2023-04-03T00:17:44;3.10;99.90
37874;DHT22;23709;48.078;11.684;2023-04-03T00:20:17;3.10;99.90
37874;DHT22;23709;48.078;11.684;2023-04-03T00:22:50;3.10;99.90
37874;DHT22;23709;48.078;11.684;2023-04-03T00:25:22;3.00;99.90
37874;DHT22;23709;48.078;11.684;2023-04-03T00:27:55;3.10;99.90
37874;DHT22;23709;48.078;11.684;2023-04-03T00:30:27;3.00;99.90
37874;DHT22;23709;48.078;11.684;2023-04-03T00:33:00;3.00;99.90
37874;DHT22;23709;48.078;11.684;2023-04-03T00:35:34;3.00;99.90
37874;DHT22;23709;48.078;11.684;2023-04-03T00:38:06;3.10;99.90
37874;DHT22;23709;48.078;11.684;2023-04-03T00:40:42;3.10;99.90
37874;DHT22;23709;48.078;11.684;2023-04-03T00:43:21;3.10;99.90
37874;DHT22;23709;48.078;11.684;2023-04-03T00:45:58;3.10;99.90
37874;DHT22;23709;48.078;11.684;2023-04-03T00:48:33;3.10;99.90
37874;DHT22;23709;48.078;11.684;2023-04-03T00:51:10;3.00;99.90
37874;DHT22;23709;48.078;11.684;2023-04-03T00:53:48;3.00;99.90
37874;DHT22;23709;48.078;11.684;2023-04-03T00:56:23;3.00;99.90
37874;DHT22;23709;48.078;11.684;2023-04-03T00:59:04;3.00;99.90
37874;DHT22;23709;48.078;11.684;2023-04-03T01:01:38;3.00;99.90
37874;DHT22;23709;48.078;11.684;2023-04-03T01:04:29;3.10;99.90
37874;DHT22;23709;48.078;11.684;2023-04-03T01:07:15;3.00;99.90
37874;DHT22;23709;48.078;11.684;2023-04-03T01:09:51;3.00;99.90
37874;DHT22;23709;48.078;11.684;2023-04-03T01:12:26;3.00;99.90
37874;DHT22;23709;48.078;11.684;2023-04-03T01:15:00;3.00;99.90
37874;DHT22;23709;48.078;11.684;2023-04-03T01:17:41;3.00;99.90
37874;DHT22;23709;48.078;11.684;2023-04-03T01:25:49;3.10;99.90
37874;DHT22;23709;48.078;11.684;2023-04-03T01:28:28;2.90;99.90
37874;DHT22;23709;48.078;11.684;2023-04-03T01:33:39;2.90;99.90
37874;DHT22;23709;48.078;11.684;2023-04-03T01:36:18;3.00;99.90
37874;DHT22;23709;48.078;11.684;2023-04-03T01:38:53;2.90;99.90
37874;DHT22;23709;48.078;11.684;2023-04-03T01:41:26;2.90;99.90
37874;DHT22;23709;48.078;11.684;2023-04-03T01:44:05;2.80;99.90
37874;DHT22;23709;48.078;11.684;2023-04-03T01:46:37;2.90;99.90
37874;DHT22;23709;48.078;11.684;2023-04-03T01:49:10;2.90;99.90
37874;DHT22;23709;48.078;11.684;2023-04-03T01:51:42;2.90;99.90
37874;DHT22;23709;48.078;11.684;2023-04-03T01:54:14;2.90;99.90
37874;DHT22;23709;48.078;11.684;2023-04-03T01:56:48;2.90;99.90
37874;DHT22;23709;48.078;11.684;2023-04-03T01:59:21;3.00;99.90
37874;DHT22;23709;48.078;11.684;2023-04-03T02:01:54;2.90;99.90
37874;DHT22;23709;48.078;11.684;2023-04-03T02:04:27;3.00;99.90
37874;DHT22;23709;48.078;11.684;2023-04-03T02:06:59;3.00;99.90
37874;DHT22;23709;48.078;11.684;2023-04-03T02:09:32;3.00;99.90
37874;DHT22;23709;48.078;11.684;2023-04-03T02:12:04;2.90;99.90
37874;DHT22;23709;48.078;11.684;2023-04-03T02:14:37;3.00;99.90
37874;DHT22;23709;48.078;11.684;2023-04-03T02:17:09;3.00;99.90
37874;DHT22;23709;48.078;11.684;2023-04-03T02:19:42;3.00;99.90
37874;DHT22;23709;48.078;11.684;2023-04-03T02:22:14;3.00;99.90
37874;DHT22;23709;48.078;11.684;2023-04-03T02:24:46;3.00;99.90
37874;DHT22;23709;48.078;11.684;2023-04-03T02:27:18;3.00;99.90
37874;DHT22;23709;48.078;11.684;2023-04-03T02:29:52;3.00;99.90
37874;DHT22;23709;48.078;11.684;2023-04-03T02:32:25;3.00;99.90
37874;DHT22;23709;48.078;11.684;2023-04-03T02:34:57;3.00;99.90
37874;DHT22;23709;48.078;11.684;2023-04-03T02:37:29;3.10;99.90
37874;DHT22;23709;48.078;11.684;2023-04-03T02:40:04;3.10;99.90
37874;DHT22;23709;48.078;11.684;2023-04-03T02:42:36;3.10;99.90
37874;DHT22;23709;48.078;11.684;2023-04-03T02:45:09;3.10;99.90
37874;DHT22;23709;48.078;11.684;2023-04-03T02:47:42;3.10;99.90
37874;DHT22;23709;48.078;11.684;2023-04-03T02:50:14;3.20;99.90
37874;DHT22;23709;48.078;11.684;2023-04-03T02:52:46;3.10;99.90
37874;DHT22;23709;48.078;11.684;2023-04-03T02:55:19;3.10;99.90
37874;DHT22;23709;48.078;11.684;2023-04-03T02:57:53;3.10;99.90
37874;DHT22;23709;48.078;11.684;2023-04-03T03:00:26;3.10;99.90
37874;DHT22;23709;48.078;11.684;2023-04-03T03:02:58;3.10;99.90
37874;DHT22;23709;48.078;11.684;2023-04-03T03:05:30;3.10;99.90
37874;DHT22;23709;48.078;11.684;2023-04-03T03:08:03;3.20;99.90
37874;DHT22;23709;48.078;11.684;2023-04-03T03:10:35;3.20;99.90
37874;DHT22;23709;48.078;11.684;2023-04-03T03:13:07;3.10;99.90
37874;DHT22;23709;48.078;11.684;2023-04-03T03:15:39;3.10;99.90
37874;DHT22;23709;48.078;11.684;2023-04-03T03:18:12;3.10;99.90
37874;DHT22;23709;48.078;11.684;2023-04-03T03:20:44;3.10;99.90
37874;DHT22;23709;48.078;11.684;2023-04-03T03:23:16;3.20;99.90
37874;DHT22;23709;48.078;11.684;2023-04-03T03:25:48;3.20;99.90
37874;DHT22;23709;48.078;11.684;2023-04-03T03:28:20;3.20;99.90
37874;DHT22;23709;48.078;11.684;2023-04-03T03:30:53;3.10;99.90
37874;DHT22;23709;48.078;11.684;2023-04-03T03:33:27;3.10;99.90
37874;DHT22;23709;48.078;11.684;2023-04-03T03:36:00;3.10;99.90
37874;DHT22;23709;48.078;11.684;2023-04-03T03:38:32;3.10;99.90
37874;DHT22;23709;48.078;11.684;2023-04-03T03:41:06;3.10;99.90
37874;DHT22;23709;48.078;11.684;2023-04-03T03:43:39;3.10;99.90
37874;DHT22;23709;48.078;11.684;2023-04-03T03:46:12;3.10;99.90
37874;DHT22;23709;48.078;11.684;2023-04-03T03:48:45;3.10;99.90
37874;DHT22;23709;48.078;11.684;2023-04-03T03:51:17;3.00;99.90
37874;DHT22;23709;48.078;11.684;2023-04-03T03:53:50;3.10;99.90
37874;DHT22;23709;48.078;11.684;2023-04-03T03:56:24;3.10;99.90
37874;DHT22;23709;48.078;11.684;2023-04-03T03:58:57;3.10;99.90
37874;DHT22;23709;48.078;11.684;2023-04-03T04:01:30;3.10;99.90
37874;DHT22;23709;48.078;11.684;2023-04-03T04:04:02;3.10;99.90
37874;DHT22;23709;48.078;11.684;2023-04-03T04:06:36;3.00;99.90
37874;DHT22;23709;48.078;11.684;2023-04-03T04:09:11;3.00;99.90
37874;DHT22;23709;48.078;11.684;2023-04-03T04:11:44;3.00;99.90
37874;DHT22;23709;48.078;11.684;2023-04-03T04:14:18;3.00;99.90
37874;DHT22;23709;48.078;11.684;2023-04-03T04:16:53;3.00;99.90
37874;DHT22;23709;48.078;11.684;2023-04-03T04:19:29;3.00;99.90
37874;DHT22;23709;48.078;11.684;2023-04-03T04:22:01;3.00;99.90
37874;DHT22;23709;48.078;11.684;2023-04-03T04:24:35;3.00;99.90
37874;DHT22;23709;48.078;11.684;2023-04-03T04:27:10;3.00;99.90
37874;DHT22;23709;48.078;11.684;2023-04-03T04:29:43;3.00;99.90
37874;DHT22;23709;48.078;11.684;2023-04-03T04:32:15;3.00;99.90
37874;DHT22;23709;48.078;11.684;2023-04-03T04:34:49;3.00;99.90
37874;DHT22;23709;48.078;11.684;2023-04-03T04:37:21;3.00;99.90
37874;DHT22;23709;48.078;11.684;2023-04-03T04:39:54;3.00;99.90
37874;DHT22;23709;48.078;11.684;2023-04-03T04:42:26;3.00;99.90
37874;DHT22;23709;48.078;11.684;2023-04-03T04:44:58;3.00;99.90
37874;DHT22;23709;48.078;11.684;2023-04-03T04:47:31;2.90;99.90
37874;DHT22;23709;48.078;11.684;2023-04-03T04:50:03;2.90;99.90
37874;DHT22;23709;48.078;11.684;2023-04-03T04:52:37;2.90;99.90
37874;DHT22;23709;48.078;11.684;2023-04-03T04:55:12;2.90;99.90
37874;DHT22;23709;48.078;11.684;2023-04-03T04:57:44;2.90;99.90
37874;DHT22;23709;48.078;11.684;2023-04-03T05:00:17;2.90;99.90
37874;DHT22;23709;48.078;11.684;2023-04-03T05:02:50;2.90;99.90
37874;DHT22;23709;48.078;11.684;2023-04-03T05:05:24;2.90;99.90
37874;DHT22;23709;48.078;11.684;2023-04-03T05:07:56;2.90;99.90
37874;DHT22;23709;48.078;11.684;2023-04-03T05:10:29;2.90;99.90
37874;DHT22;23709;48.078;11.684;2023-04-03T05:13:01;2.90;99.90
37874;DHT22;23709;48.078;11.684;2023-04-03T05:15:34;2.90;99.90
37874;DHT22;23709;48.078;11.684;2023-04-03T05:18:07;2.90;99.90
37874;DHT22;23709;48.078;11.684;2023-04-03T05:20:40;2.90;99.90
37874;DHT22;23709;48.078;11.684;2023-04-03T05:23:12;2.90;99.90
37874;DHT22;23709;48.078;11.684;2023-04-03T05:25:45;2.90;99.90
37874;DHT22;23709;48.078;11.684;2023-04-03T05:28:19;2.90;99.90
37874;DHT22;23709;48.078;11.684;2023-04-03T05:30:56;2.90;99.90
37874;DHT22;23709;48.078;11.684;2023-04-03T05:33:32;2.90;99.90
37874;DHT22;23709;48.078;11.684;2023-04-03T05:36:06;2.90;99.90
37874;DHT22;23709;48.078;11.684;2023-04-03T05:38:45;2.90;99.90
37874;DHT22;23709;48.078;11.684;2023-04-03T05:41:19;2.90;99.90
37874;DHT22;23709;48.078;11.684;2023-04-03T05:43:53;2.90;99.90
37874;DHT22;23709;48.078;11.684;2023-04-03T05:46:28;2.90;99.90
37874;DHT22;23709;48.078;11.684;2023-04-03T05:49:02;2.90;99.90
37874;DHT22;23709;48.078;11.684;2023-04-03T05:51:38;3.00;99.90
37874;DHT22;23709;48.078;11.684;2023-04-03T05:54:25;2.90;99.90
37874;DHT22;23709;48.078;11.684;2023-04-03T05:57:04;2.90;99.90
37874;DHT22;23709;48.078;11.684;2023-04-03T05:59:37;2.90;99.90
37874;DHT22;23709;48.078;11.684;2023-04-03T06:02:12;2.90;99.90
37874;DHT22;23709;48.078;11.684;2023-04-03T06:04:45;2.90;99.90
37874;DHT22;23709;48.078;11.684;2023-04-03T06:07:21;3.00;99.90
37874;DHT22;23709;48.078;11.684;2023-04-03T06:09:56;3.00;99.90
37874;DHT22;23709;48.078;11.684;2023-04-03T06:12:28;3.00;99.90
37874;DHT22;23709;48.078;11.684;2023-04-03T06:15:02;3.00;99.90
37874;DHT22;23709;48.078;11.684;2023-04-03T06:17:36;3.00;99.90
37874;DHT22;23709;48.078;11.684;2023-04-03T06:20:08;3.00;99.90
37874;DHT22;23709;48.078;11.684;2023-04-03T06:22:41;3.00;99.90
37874;DHT22;23709;48.078;11.684;2023-04-03T06:25:16;3.00;99.90
37874;DHT22;23709;48.078;11.684;2023-04-03T06:27:50;3.00;99.90
37874;DHT22;23709;48.078;11.684;2023-04-03T06:30:23;3.00;99.90
37874;DHT22;23709;48.078;11.684;2023-04-03T06:32:55;3.00;99.90
37874;DHT22;23709;48.078;11.684;2023-04-03T06:35:27;3.10;99.90
37874;DHT22;23709;48.078;11.684;2023-04-03T06:38:00;3.20;99.90
37874;DHT22;23709;48.078;11.684;2023-04-03T06:40:33;3.20;99.90
37874;DHT22;23709;48.078;11.684;2023-04-03T06:43:05;3.20;99.90
37874;DHT22;23709;48.078;11.684;2023-04-03T06:45:37;3.20;99.90
37874;DHT22;23709;48.078;11.684;2023-04-03T06:48:10;3.20;99.90
37874;DHT22;23709;48.078;11.684;2023-04-03T06:50:43;3.20;99.90
37874;DHT22;23709;48.078;11.684;2023-04-03T06:53:15;3.20;99.90
37874;DHT22;23709;48.078;11.684;2023-04-03T06:55:48;3.20;99.90
37874;DHT22;23709;48.078;11.684;2023-04-03T06:58:20;3.20;99.90
37874;DHT22;23709;48.078;11.684;2023-04-03T07:00:54;3.20;99.90
37874;DHT22;23709;48.078;11.684;2023-04-03T07:03:26;3.30;99.90
37874;DHT22;23709;48.078;11.684;2023-04-03T07:05:59;3.30;99.90
37874;DHT22;23709;48.078;11.684;2023-04-03T07:08:34;3.40;99.90
37874;DHT22;23709;48.078;11.684;2023-04-03T07:11:06;3.40;99.90
37874;DHT22;23709;48.078;11.684;2023-04-03T07:13:39;3.40;99.90
37874;DHT22;23709;48.078;11.684;2023-04-03T07:16:12;3.40;99.90
37874;DHT22;23709;48.078;11.684;2023-04-03T07:18:45;3.50;99.90
37874;DHT22;23709;48.078;11.684;2023-04-03T07:21:17;3.50;99.90
37874;DHT22;23709;48.078;11.684;2023-04-03T07:23:50;3.60;99.90
37874;DHT22;23709;48.078;11.684;2023-04-03T07:26:22;3.60;99.90
37874;DHT22;23709;48.078;11.684;2023-04-03T07:28:55;3.50;99.90
37874;DHT22;23709;48.078;11.684;2023-04-03T07:31:27;3.60;99.90
37874;DHT22;23709;48.078;11.684;2023-04-03T07:33:59;3.70;99.90
37874;DHT22;23709;48.078;11.684;2023-04-03T07:36:31;3.70;99.90
37874;DHT22;23709;48.078;11.684;2023-04-03T07:39:05;3.80;99.90
37874;DHT22;23709;48.078;11.684;2023-04-03T07:41:38;3.70;99.90
37874;DHT22;23709;48.078;11.684;2023-04-03T07:44:11;3.70;99.90
37874;DHT22;23709;48.078;11.684;2023-04-03T07:46:43;3.70;99.90
37874;DHT22;23709;48.078;11.684;2023-04-03T07:49:17;3.80;99.90
37874;DHT22;23709;48.078;11.684;2023-04-03T07:51:50;3.80;99.90
37874;DHT22;23709;48.078;11.684;2023-04-03T07:54:23;3.80;99.90
37874;DHT22;23709;48.078;11.684;2023-04-03T07:56:55;3.80;99.90
37874;DHT22;23709;48.078;11.684;2023-04-03T07:59:28;3.80;99.90
37874;DHT22;23709;48.078;11.684;2023-04-03T08:02:01;3.80;99.90
37874;DHT22;23709;48.078;11.684;2023-04-03T08:04:33;3.90;99.90
37874;DHT22;23709;48.078;11.684;2023-04-03T08:07:07;3.90;99.90
37874;DHT22;23709;48.078;11.684;2023-04-03T08:09:39;3.90;99.90
37874;DHT22;23709;48.078;11.684;2023-04-03T08:12:11;4.00;99.90
37874;DHT22;23709;48.078;11.684;2023-04-03T08:14:44;4.00;99.90
37874;DHT22;23709;48.078;11.684;2023-04-03T08:17:16;3.90;99.90
37874;DHT22;23709;48.078;11.684;2023-04-03T08:19:48;4.00;99.90
37874;DHT22;23709;48.078;11.684;2023-04-03T08:22:20;4.00;99.90
37874;DHT22;23709;48.078;11.684;2023-04-03T08:24:52;4.00;99.90
37874;DHT22;23709;48.078;11.684;2023-04-03T08:27:30;4.10;99.90
37874;DHT22;23709;48.078;11.684;2023-04-03T08:30:06;4.00;99.90
37874;DHT22;23709;48.078;11.684;2023-04-03T08:32:39;4.00;99.90
37874;DHT22;23709;48.078;11.684;2023-04-03T08:35:13;3.90;99.90
37874;DHT22;23709;48.078;11.684;2023-04-03T08:37:46;4.00;99.90
37874;DHT22;23709;48.078;11.684;2023-04-03T08:40:18;4.00;99.90
37874;DHT22;23709;48.078;11.684;2023-04-03T08:43:10;4.00;99.90
37874;DHT22;23709;48.078;11.684;2023-04-03T08:45:53;4.10;99.90
37874;DHT22;23709;48.078;11.684;2023-04-03T08:48:31;4.10;99.90
37874;DHT22;23709;48.078;11.684;2023-04-03T08:51:13;4.20;99.90
37874;DHT22;23709;48.078;11.684;2023-04-03T08:56:26;4.30;99.90
37874;DHT22;23709;48.078;11.684;2023-04-03T08:59:06;4.30;99.90
37874;DHT22;23709;48.078;11.684;2023-04-03T09:01:43;4.40;99.90
37874;DHT22;23709;48.078;11.684;2023-04-03T09:04:16;4.40;99.90
37874;DHT22;23709;48.078;11.684;2023-04-03T09:06:54;4.40;99.90
37874;DHT22;23709;48.078;11.684;2023-04-03T09:09:41;4.40;99.90
37874;DHT22;23709;48.078;11.684;2023-04-03T09:12:24;4.50;99.90
37874;DHT22;23709;48.078;11.684;2023-04-03T09:15:16;4.60;99.90
37874;DHT22;23709;48.078;11.684;2023-04-03T09:18:23;4.70;99.90
37874;DHT22;23709;48.078;11.684;2023-04-03T09:23:46;4.90;99.90
37874;DHT22;23709;48.078;11.684;2023-04-03T09:26:34;4.80;99.90
37874;DHT22;23709;48.078;11.684;2023-04-03T09:29:10;4.80;99.90
37874;DHT22;23709;48.078;11.684;2023-04-03T09:31:48;4.90;99.90
37874;DHT22;23709;48.078;11.684;2023-04-03T09:34:35;4.80;99.90
37874;DHT22;23709;48.078;11.684;2023-04-03T09:37:07;4.80;99.90
37874;DHT22;23709;48.078;11.684;2023-04-03T09:39:52;4.90;99.90
37874;DHT22;23709;48.078;11.684;2023-04-03T09:42:25;4.80;99.90
37874;DHT22;23709;48.078;11.684;2023-04-03T09:45:00;4.80;99.90
37874;DHT22;23709;48.078;11.684;2023-04-03T09:47:35;4.80;99.90
37874;DHT22;23709;48.078;11.684;2023-04-03T09:52:48;4.60;99.90
37874;DHT22;23709;48.078;11.684;2023-04-03T09:55:26;4.40;99.90
37874;DHT22;23709;48.078;11.684;2023-04-03T09:58:02;4.30;99.90
37874;DHT22;23709;48.078;11.684;2023-04-03T10:00:37;4.30;99.90
37874;DHT22;23709;48.078;11.684;2023-04-03T10:03:32;4.30;99.90
37874;DHT22;23709;48.078;11.684;2023-04-03T10:06:23;4.30;99.90
37874;DHT22;23709;48.078;11.684;2023-04-03T10:09:00;4.40;99.90
37874;DHT22;23709;48.078;11.684;2023-04-03T10:11:34;4.50;99.90
37874;DHT22;23709;48.078;11.684;2023-04-03T10:14:16;4.50;99.90
37874;DHT22;23709;48.078;11.684;2023-04-03T10:17:21;4.70;99.90
37874;DHT22;23709;48.078;11.684;2023-04-03T10:25:43;4.90;99.90
37874;DHT22;23709;48.078;11.684;2023-04-03T10:28:30;5.00;99.90
37874;DHT22;23709;48.078;11.684;2023-04-03T10:31:15;5.00;99.90
37874;DHT22;23709;48.078;11.684;2023-04-03T10:39:57;5.10;99.90
37874;DHT22;23709;48.078;11.684;2023-04-03T10:45:24;5.20;99.90
37874;DHT22;23709;48.078;11.684;2023-04-03T10:48:07;5.20;99.90
37874;DHT22;23709;48.078;11.684;2023-04-03T10:51:19;5.10;99.90
37874;DHT22;23709;48.078;11.684;2023-04-03T10:54:26;4.90;99.90
37874;DHT22;23709;48.078;11.684;2023-04-03T10:57:06;4.50;99.90
37874;DHT22;23709;48.078;11.684;2023-04-03T10:59:55;4.50;99.90
37874;DHT22;23709;48.078;11.684;2023-04-03T11:05:18;4.10;99.90
37874;DHT22;23709;48.078;11.684;2023-04-03T11:07:55;4.00;99.90
37874;DHT22;23709;48.078;11.684;2023-04-03T11:10:42;3.90;99.90
37874;DHT22;23709;48.078;11.684;2023-04-03T11:13:19;3.90;99.90
37874;DHT22;23709;48.078;11.684;2023-04-03T11:15:53;3.80;99.90
37874;DHT22;23709;48.078;11.684;2023-04-03T11:18:35;3.90;99.90
37874;DHT22;23709;48.078;11.684;2023-04-03T11:21:32;3.90;99.90
37874;DHT22;23709;48.078;11.684;2023-04-03T11:24:17;4.00;99.90
37874;DHT22;23709;48.078;11.684;2023-04-03T11:26:54;4.10;99.90
37874;DHT22;23709;48.078;11.684;2023-04-03T11:29:36;4.10;99.90
37874;DHT22;23709;48.078;11.684;2023-04-03T11:35:13;4.10;99.90
37874;DHT22;23709;48.078;11.684;2023-04-03T11:37:48;4.00;99.90
37874;DHT22;23709;48.078;11.684;2023-04-03T11:40:26;4.10;99.90
37874;DHT22;23709;48.078;11.684;2023-04-03T11:45:35;4.10;99.90
37874;DHT22;23709;48.078;11.684;2023-04-03T11:50:56;4.00;99.90
37874;DHT22;23709;48.078;11.684;2023-04-03T11:53:34;4.00;99.90
37874;DHT22;23709;48.078;11.684;2023-04-03T12:01:53;4.00;99.90
37874;DHT22;23709;48.078;11.684;2023-04-03T12:04:27;4.10;99.90
37874;DHT22;23709;48.078;11.684;2023-04-03T12:07:02;4.20;99.90
37874;DHT22;23709;48.078;11.684;2023-04-03T12:15:44;4.30;99.90
37874;DHT22;23709;48.078;11.684;2023-04-03T12:18:40;4.30;99.90
37874;DHT22;23709;48.078;11.684;2023-04-03T12:21:14;4.40;99.90
37874;DHT22;23709;48.078;11.684;2023-04-03T12:29:50;4.40;99.90
37874;DHT22;23709;48.078;11.684;2023-04-03T12:32:51;4.50;99.90
37874;DHT22;23709;48.078;11.684;2023-04-03T12:36:07;4.60;99.20
37874;DHT22;23709;48.078;11.684;2023-04-03T12:38:58;4.70;97.10
37874;DHT22;23709;48.078;11.684;2023-04-03T12:41:37;4.60;95.70
37874;DHT22;23709;48.078;11.684;2023-04-03T12:44:55;4.60;95.40
37874;DHT22;23709;48.078;11.684;2023-04-03T12:47:33;4.50;94.40
37874;DHT22;23709;48.078;11.684;2023-04-03T12:50:27;4.50;96.50
37874;DHT22;23709;48.078;11.684;2023-04-03T12:53:14;4.60;94.80
37874;DHT22;23709;48.078;11.684;2023-04-03T12:55:54;4.80;94.40
37874;DHT22;23709;48.078;11.684;2023-04-03T12:58:28;4.90;93.80
37874;DHT22;23709;48.078;11.684;2023-04-03T13:03:33;5.20;92.10
37874;DHT22;23709;48.078;11.684;2023-04-03T13:06:07;5.30;92.30
37874;DHT22;23709;48.078;11.684;2023-04-03T13:08:52;5.50;93.20
37874;DHT22;23709;48.078;11.684;2023-04-03T13:11:27;5.60;93.70
37874;DHT22;23709;48.078;11.684;2023-04-03T13:14:14;5.70;91.00
37874;DHT22;23709;48.078;11.684;2023-04-03T13:16:58;5.70;90.50
37874;DHT22;23709;48.078;11.684;2023-04-03T13:19:31;5.90;90.80
37874;DHT22;23709;48.078;11.684;2023-04-03T13:22:15;5.90;90.90
37874;DHT22;23709;48.078;11.684;2023-04-03T13:24:52;5.90;82.40
37874;DHT22;23709;48.078;11.684;2023-04-03T13:27:25;6.20;84.70
37874;DHT22;23709;48.078;11.684;2023-04-03T13:30:00;6.80;80.10
37874;DHT22;23709;48.078;11.684;2023-04-03T13:32:33;7.40;74.90
37874;DHT22;23709;48.078;11.684;2023-04-03T13:35:32;7.70;75.80
37874;DHT22;23709;48.078;11.684;2023-04-03T13:40:58;8.30;71.00
37874;DHT22;23709;48.078;11.684;2023-04-03T13:43:36;8.30;68.00
37874;DHT22;23709;48.078;11.684;2023-04-03T13:48:46;9.20;67.70
37874;DHT22;23709;48.078;11.684;2023-04-03T13:51:25;10.00;65.00
37874;DHT22;23709;48.078;11.684;2023-04-03T13:54:00;10.20;61.30
37874;DHT22;23709;48.078;11.684;2023-04-03T13:56:35;9.80;63.20
37874;DHT22;23709;48.078;11.684;2023-04-03T14:07:17;7.20;68.90
37874;DHT22;23709;48.078;11.684;2023-04-03T14:09:52;7.00;70.20
37874;DHT22;23709;48.078;11.684;2023-04-03T14:12:30;6.70;70.90
37874;DHT22;23709;48.078;11.684;2023-04-03T14:15:15;6.50;70.80
37874;DHT22;23709;48.078;11.684;2023-04-03T14:17:47;6.30;72.20
37874;DHT22;23709;48.078;11.684;2023-04-03T14:20:22;6.20;71.10
37874;DHT22;23709;48.078;11.684;2023-04-03T14:22:55;6.20;72.70
37874;DHT22;23709;48.078;11.684;2023-04-03T14:25:27;6.30;73.50
37874;DHT22;23709;48.078;11.684;2023-04-03T14:28:00;6.30;73.50
37874;DHT22;23709;48.078;11.684;2023-04-03T14:30:33;6.20;72.60
37874;DHT22;23709;48.078;11.684;2023-04-03T14:33:09;6.20;72.50
37874;DHT22;23709;48.078;11.684;2023-04-03T14:35:42;6.30;71.70
37874;DHT22;23709;48.078;11.684;2023-04-03T14:40:54;6.30;70.60
37874;DHT22;23709;48.078;11.684;2023-04-03T14:43:38;6.30;71.50
37874;DHT22;23709;48.078;11.684;2023-04-03T14:49:22;6.30;70.00
37874;DHT22;23709;48.078;11.684;2023-04-03T14:51:59;6.30;71.40
37874;DHT22;23709;48.078;11.684;2023-04-03T14:54:31;6.40;68.60
37874;DHT22;23709;48.078;11.684;2023-04-03T14:57:05;6.40;67.20
37874;DHT22;23709;48.078;11.684;2023-04-03T14:59:43;6.50;67.00
37874;DHT22;23709;48.078;11.684;2023-04-03T15:02:35;6.60;66.90
37874;DHT22;23709;48.078;11.684;2023-04-03T15:05:10;6.50;67.30
37874;DHT22;23709;48.078;11.684;2023-04-03T15:07:50;6.50;66.10
37874;DHT22;23709;48.078;11.684;2023-04-03T15:10:29;6.40;65.20
37874;DHT22;23709;48.078;11.684;2023-04-03T15:13:02;6.60;65.40
37874;DHT22;23709;48.078;11.684;2023-04-03T15:15:35;6.60;63.90
37874;DHT22;23709;48.078;11.684;2023-04-03T15:18:18;6.60;64.80
37874;DHT22;23709;48.078;11.684;2023-04-03T15:20:53;6.50;65.20
37874;DHT22;23709;48.078;11.684;2023-04-03T15:23:25;6.70;66.40
37874;DHT22;23709;48.078;11.684;2023-04-03T15:25:59;6.90;63.80
37874;DHT22;23709;48.078;11.684;2023-04-03T15:28:35;6.80;63.70
37874;DHT22;23709;48.078;11.684;2023-04-03T15:31:08;6.70;65.10
37874;DHT22;23709;48.078;11.684;2023-04-03T15:33:41;6.50;62.80
37874;DHT22;23709;48.078;11.684;2023-04-03T15:36:15;6.40;63.60
37874;DHT22;23709;48.078;11.684;2023-04-03T15:39:00;6.30;63.00
37874;DHT22;23709;48.078;11.684;2023-04-03T15:41:32;6.30;64.10
37874;DHT22;23709;48.078;11.684;2023-04-03T15:44:05;6.20;64.00
37874;DHT22;23709;48.078;11.684;2023-04-03T15:46:38;6.20;63.90
37874;DHT22;23709;48.078;11.684;2023-04-03T15:49:11;6.10;62.40
37874;DHT22;23709;48.078;11.684;2023-04-03T15:51:44;6.00;62.40
37874;DHT22;23709;48.078;11.684;2023-04-03T15:54:17;6.00;62.50
37874;DHT22;23709;48.078;11.684;2023-04-03T15:56:49;6.10;65.60
37874;DHT22;23709;48.078;11.684;2023-04-03T15:59:22;6.20;65.70
37874;DHT22;23709;48.078;11.684;2023-04-03T16:01:54;6.30;64.30
37874;DHT22;23709;48.078;11.684;2023-04-03T16:04:27;6.40;62.00
37874;DHT22;23709;48.078;11.684;2023-04-03T16:07:03;6.70;59.70
37874;DHT22;23709;48.078;11.684;2023-04-03T16:09:38;7.00;60.00
37874;DHT22;23709;48.078;11.684;2023-04-03T16:12:10;7.30;59.60
37874;DHT22;23709;48.078;11.684;2023-04-03T16:14:47;7.40;58.30
37874;DHT22;23709;48.078;11.684;2023-04-03T16:17:22;7.50;60.10
37874;DHT22;23709;48.078;11.684;2023-04-03T16:19:55;7.60;58.60
37874;DHT22;23709;48.078;11.684;2023-04-03T16:22:28;7.60;57.30
37874;DHT22;23709;48.078;11.684;2023-04-03T16:25:01;7.30;56.00
37874;DHT22;23709;48.078;11.684;2023-04-03T16:27:33;6.90;57.00
37874;DHT22;23709;48.078;11.684;2023-04-03T16:30:07;6.70;58.80
37874;DHT22;23709;48.078;11.684;2023-04-03T16:32:41;6.40;58.10
37874;DHT22;23709;48.078;11.684;2023-04-03T16:35:13;6.10;58.00
37874;DHT22;23709;48.078;11.684;2023-04-03T16:37:45;6.00;58.30
37874;DHT22;23709;48.078;11.684;2023-04-03T16:40:18;6.00;59.70
37874;DHT22;23709;48.078;11.684;2023-04-03T16:42:50;5.80;57.90
37874;DHT22;23709;48.078;11.684;2023-04-03T16:45:22;5.80;59.80
37874;DHT22;23709;48.078;11.684;2023-04-03T16:47:54;5.80;61.90
37874;DHT22;23709;48.078;11.684;2023-04-03T16:50:27;5.70;61.90
37874;DHT22;23709;48.078;11.684;2023-04-03T16:52:59;5.60;63.20
37874;DHT22;23709;48.078;11.684;2023-04-03T16:55:31;5.60;63.90
37874;DHT22;23709;48.078;11.684;2023-04-03T16:58:03;5.60;64.80
37874;DHT22;23709;48.078;11.684;2023-04-03T17:00:36;5.50;64.20
37874;DHT22;23709;48.078;11.684;2023-04-03T17:03:09;5.40;64.20
37874;DHT22;23709;48.078;11.684;2023-04-03T17:05:47;5.30;65.10
37874;DHT22;23709;48.078;11.684;2023-04-03T17:08:20;5.30;64.90
37874;DHT22;23709;48.078;11.684;2023-04-03T17:10:52;5.20;65.30
37874;DHT22;23709;48.078;11.684;2023-04-03T17:13:25;5.10;65.10
37874;DHT22;23709;48.078;11.684;2023-04-03T17:16:09;5.10;66.20
37874;DHT22;23709;48.078;11.684;2023-04-03T17:18:43;5.00;67.10
37874;DHT22;23709;48.078;11.684;2023-04-03T17:21:16;5.00;67.20
37874;DHT22;23709;48.078;11.684;2023-04-03T17:23:51;4.80;67.90
37874;DHT22;23709;48.078;11.684;2023-04-03T17:26:26;4.80;69.60
37874;DHT22;23709;48.078;11.684;2023-04-03T17:28:58;4.70;70.80
37874;DHT22;23709;48.078;11.684;2023-04-03T17:31:31;4.60;72.10
37874;DHT22;23709;48.078;11.684;2023-04-03T17:34:04;4.60;72.10
37874;DHT22;23709;48.078;11.684;2023-04-03T17:36:37;4.60;71.80
37874;DHT22;23709;48.078;11.684;2023-04-03T17:39:10;4.60;70.70
37874;DHT22;23709;48.078;11.684;2023-04-03T17:41:43;4.40;69.50
37874;DHT22;23709;48.078;11.684;2023-04-03T17:44:17;4.40;70.10
37874;DHT22;23709;48.078;11.684;2023-04-03T17:46:50;4.30;69.30